Time;durP1;ratioP1;P1;durP2;ratioP2;P2;SDS_P1;SDS_P2;PMS_P1;PMS_P2;Temp;Humidity;BMP_temperature;BMP_pressure;BME280_temperature;BME280_humidity;BME280_pressure;Samples;Min_cycle;Max_cycle;Signal;HPM_P1;HPM_P2
2024/02/18 00:01:25;;;;;;;29.20;14.70;;;11.50;89.50;;;;;;9178284;19;20014;-70
2024/02/18 00:04:31;;;;;;;33.10;15.05;;;11.60;89.50;;;;;;9177905;19;20013;-70
2024/02/18 00:07:42;;;;;;;27.98;14.32;;;11.60;89.60;;;;;;9175118;19;20026;-70
2024/02/18 00:10:47;;;;;;;28.98;14.23;;;11.60;89.30;;;;;;9176481;19;20018;-71
2024/02/18 00:13:55;;;;;;;29.55;14.35;;;11.60;89.30;;;;;;9178094;19;20503;-70
2024/02/18 00:17:01;;;;;;;30.45;15.07;;;11.60;89.80;;;;;;9177093;19;20559;-70
2024/02/18 00:20:11;;;;;;;30.02;13.00;;;11.60;89.30;;;;;;9177760;19;20496;-71
2024/02/18 00:23:19;;;;;;;26.00;14.18;;;11.60;89.50;;;;;;9177592;19;20022;-74
2024/02/18 00:26:26;;;;;;;26.58;13.63;;;11.50;89.40;;;;;;9171426;19;20014;-70
2024/02/18 00:29:52;;;;;;;39.08;15.52;;;11.50;89.30;;;;;;9177757;19;20018;-72
2024/02/18 00:32:59;;;;;;;26.13;13.63;;;11.50;89.30;;;;;;9175987;19;20022;-69
2024/02/18 00:36:05;;;;;;;27.80;12.77;;;11.50;89.40;;;;;;9177905;19;20128;-70
2024/02/18 00:39:16;;;;;;;30.52;13.05;;;11.50;89.30;;;;;;9176793;19;20014;-71
2024/02/18 00:42:21;;;;;;;31.65;12.80;;;11.60;89.60;;;;;;9175850;19;20364;-71
2024/02/18 00:45:29;;;;;;;23.45;12.70;;;11.50;89.40;;;;;;9175991;19;20374;-70
2024/02/18 00:48:35;;;;;;;22.00;12.50;;;11.60;89.80;;;;;;9176431;19;20524;-70
2024/02/18 00:51:43;;;;;;;27.55;12.40;;;11.60;89.40;;;;;;9176920;19;20014;-72
2024/02/18 00:54:51;;;;;;;23.23;10.15;;;11.60;89.50;;;;;;9176807;19;20023;-71
2024/02/18 00:57:58;;;;;;;25.38;11.05;;;11.50;89.70;;;;;;9176027;19;20018;-71
2024/02/18 01:01:05;;;;;;;23.00;10.82;;;11.50;89.70;;;;;;9173921;19;20023;-71
2024/02/18 01:04:13;;;;;;;27.35;11.70;;;11.50;89.50;;;;;;9169112;19;20389;-70
2024/02/18 01:07:18;;;;;;;24.52;10.82;;;11.50;89.60;;;;;;9174363;19;20018;-70
2024/02/18 01:10:29;;;;;;;22.73;10.98;;;11.40;89.50;;;;;;9174823;19;20018;-71
2024/02/18 01:13:34;;;;;;;22.42;10.15;;;11.40;89.90;;;;;;9174416;19;20019;-72
2024/02/18 01:16:42;;;;;;;23.80;10.10;;;11.50;89.80;;;;;;9174883;19;20007;-71
2024/02/18 01:19:50;;;;;;;21.25;10.50;;;11.50;89.90;;;;;;9175501;19;20019;-71
2024/02/18 01:22:58;;;;;;;21.17;9.95;;;11.40;89.70;;;;;;9174315;19;20027;-71
2024/02/18 01:26:06;;;;;;;30.27;11.13;;;11.40;89.70;;;;;;9169695;19;20014;-71
2024/02/18 01:29:14;;;;;;;20.88;11.43;;;11.40;89.80;;;;;;9174437;19;20362;-71
2024/02/18 01:32:19;;;;;;;21.27;9.65;;;11.40;89.70;;;;;;9175034;19;20046;-71
2024/02/18 01:35:28;;;;;;;19.25;9.80;;;11.40;89.70;;;;;;9174229;19;20036;-71
2024/02/18 01:38:35;;;;;;;24.45;9.30;;;11.50;89.80;;;;;;9174697;19;20048;-72
2024/02/18 01:41:45;;;;;;;27.05;10.38;;;11.40;89.60;;;;;;9172267;19;20018;-71
2024/02/18 01:44:50;;;;;;;19.58;8.70;;;11.50;89.90;;;;;;9173614;19;20011;-71
2024/02/18 01:47:58;;;;;;;19.25;8.55;;;11.40;89.60;;;;;;9172206;19;20014;-72
2024/02/18 01:51:05;;;;;;;19.20;8.35;;;11.40;89.70;;;;;;9173981;19;20019;-71
2024/02/18 01:54:14;;;;;;;20.95;8.27;;;11.40;89.80;;;;;;9174486;19;20102;-71
2024/02/18 01:57:22;;;;;;;17.90;8.70;;;11.40;89.90;;;;;;9172389;19;20021;-71
2024/02/18 02:00:30;;;;;;;23.80;8.00;;;11.40;89.70;;;;;;9174126;19;20018;-71
2024/02/18 02:03:38;;;;;;;18.88;9.00;;;11.30;89.70;;;;;;9174143;19;20015;-71
2024/02/18 02:06:48;;;;;;;18.90;7.72;;;11.40;89.70;;;;;;9171950;19;20400;-71
2024/02/18 02:09:54;;;;;;;20.05;8.40;;;11.40;89.80;;;;;;9171262;19;20361;-71
2024/02/18 02:13:05;;;;;;;13.95;7.30;;;11.40;89.70;;;;;;9172964;19;20025;-71
2024/02/18 02:16:14;;;;;;;23.23;7.65;;;11.30;89.80;;;;;;9177292;19;20034;-71
2024/02/18 02:19:24;;;;;;;18.45;7.20;;;11.40;90.00;;;;;;9183036;19;20432;-71
2024/02/18 02:22:30;;;;;;;13.02;6.75;;;11.30;89.70;;;;;;9182760;19;20140;-71
2024/02/18 02:25:38;;;;;;;14.05;6.75;;;11.30;89.50;;;;;;9177899;19;20053;-71
2024/02/18 02:28:51;;;;;;;23.30;7.28;;;11.40;89.60;;;;;;9181939;19;20480;-71
2024/02/18 02:32:02;;;;;;;15.93;6.43;;;11.30;89.50;;;;;;9182302;19;20021;-71
2024/02/18 02:35:09;;;;;;;17.85;6.47;;;11.40;89.90;;;;;;9182564;19;20392;-71
2024/02/18 02:38:17;;;;;;;25.15;7.75;;;11.30;89.60;;;;;;9182254;19;20019;-71
2024/02/18 02:41:22;;;;;;;22.38;6.78;;;11.50;89.60;;;;;;9183025;19;20015;-71
2024/02/18 02:44:30;;;;;;;19.27;5.75;;;11.30;89.70;;;;;;9182665;19;20020;-71
2024/02/18 02:47:38;;;;;;;21.13;5.95;;;11.30;89.60;;;;;;9179587;19;20028;-71
2024/02/18 02:50:46;;;;;;;17.63;6.25;;;11.30;89.70;;;;;;9181540;19;20018;-72
2024/02/18 02:53:51;;;;;;;17.58;5.97;;;11.40;89.90;;;;;;9180551;19;20089;-71
2024/02/18 02:56:59;;;;;;;18.40;6.43;;;11.30;89.50;;;;;;9179927;19;20026;-70
2024/02/18 03:00:09;;;;;;;13.68;5.82;;;11.40;89.60;;;;;;9181102;19;20480;-69
2024/02/18 03:03:20;;;;;;;19.05;5.78;;;11.30;89.50;;;;;;9181749;19;20029;-70
2024/02/18 03:06:25;;;;;;;17.33;5.63;;;11.40;89.80;;;;;;9180968;19;20026;-70
2024/02/18 03:09:33;;;;;;;16.42;5.93;;;11.30;89.40;;;;;;9176451;19;20018;-69
2024/02/18 03:12:39;;;;;;;17.75;5.05;;;11.30;89.50;;;;;;9180495;19;20556;-70
2024/02/18 03:15:47;;;;;;;14.43;5.95;;;11.30;89.80;;;;;;9180274;19;20026;-70
2024/02/18 03:18:55;;;;;;;14.25;5.53;;;11.30;89.30;;;;;;9179541;19;20021;-70
2024/02/18 03:22:03;;;;;;;13.20;5.10;;;11.30;89.30;;;;;;9180596;19;20019;-69
2024/02/18 03:25:10;;;;;;;8.52;4.75;;;11.30;89.40;;;;;;9174060;19;20018;-70
2024/02/18 03:28:17;;;;;;;16.13;5.32;;;11.30;89.50;;;;;;9176101;19;20022;-70
2024/02/18 03:31:23;;;;;;;13.50;5.07;;;11.40;89.50;;;;;;9179931;19;20010;-70
2024/02/18 03:34:33;;;;;;;13.50;5.57;;;11.40;89.70;;;;;;9179372;19;20025;-71
2024/02/18 03:37:39;;;;;;;9.30;4.78;;;11.30;89.20;;;;;;9179146;19;20011;-70
2024/02/18 03:40:46;;;;;;;9.43;4.30;;;11.40;89.50;;;;;;9178539;19;20022;-71
2024/02/18 03:43:52;;;;;;;19.55;5.00;;;11.40;89.50;;;;;;9179692;19;20492;-70
2024/02/18 03:46:59;;;;;;;11.38;5.00;;;11.40;89.40;;;;;;9178407;19;20368;-70
2024/02/18 03:50:10;;;;;;;17.10;5.07;;;11.30;89.30;;;;;;9178145;19;20019;-70
2024/02/18 03:53:17;;;;;;;10.38;4.70;;;11.30;89.40;;;;;;9177968;19;20018;-70
2024/02/18 03:56:23;;;;;;;11.57;4.60;;;11.40;89.10;;;;;;9177761;19;20122;-70
2024/02/18 03:59:30;;;;;;;14.13;4.70;;;11.40;89.30;;;;;;9177544;19;20018;-70
2024/02/18 04:02:38;;;;;;;17.55;5.18;;;11.30;89.10;;;;;;9177695;19;20493;-69
2024/02/18 04:05:48;;;;;;;11.82;4.55;;;11.30;89.10;;;;;;9178028;19;20025;-70
2024/02/18 04:08:54;;;;;;;11.57;5.00;;;11.30;89.40;;;;;;9176111;19;20022;-70
2024/02/18 04:12:01;;;;;;;12.60;4.57;;;11.30;89.10;;;;;;9175759;19;20019;-70
2024/02/18 04:15:08;;;;;;;17.38;4.43;;;11.40;89.10;;;;;;9177895;19;20567;-70
2024/02/18 04:18:16;;;;;;;12.15;4.15;;;11.30;89.10;;;;;;9177245;19;20033;-70
2024/02/18 04:21:24;;;;;;;23.00;5.47;;;11.40;89.60;;;;;;9178291;19;20038;-70
2024/02/18 04:24:32;;;;;;;9.93;4.60;;;11.40;89.30;;;;;;9175559;19;20018;-70
2024/02/18 04:27:38;;;;;;;16.65;4.68;;;11.40;89.00;;;;;;9171889;19;20019;-70
2024/02/18 04:30:47;;;;;;;10.23;3.70;;;11.40;89.10;;;;;;9176428;19;20010;-71
2024/02/18 04:33:53;;;;;;;16.55;4.35;;;11.50;89.40;;;;;;9177850;19;20003;-72
2024/02/18 04:37:03;;;;;;;15.07;4.35;;;11.40;89.10;;;;;;9175852;19;20018;-69
2024/02/18 04:40:10;;;;;;;14.13;4.35;;;11.40;89.20;;;;;;9174342;19;20281;-69
2024/02/18 04:43:28;;;;;;;10.73;3.80;;;11.40;89.30;;;;;;9177697;19;20023;-70
2024/02/18 04:46:34;;;;;;;10.73;3.95;;;11.40;89.20;;;;;;9176082;19;20015;-70
2024/02/18 04:49:42;;;;;;;7.80;4.45;;;11.40;89.10;;;;;;9172032;19;20014;-70
2024/02/18 04:52:50;;;;;;;14.02;4.32;;;11.40;89.10;;;;;;9175460;19;20469;-70
2024/02/18 04:55:58;;;;;;;8.77;3.30;;;11.40;89.20;;;;;;9176497;19;20042;-70
2024/02/18 04:59:03;;;;;;;12.57;3.30;;;11.40;89.00;;;;;;9176915;19;20022;-71
2024/02/18 05:02:11;;;;;;;10.07;3.30;;;11.30;89.00;;;;;;9175320;19;20034;-70
2024/02/18 05:05:17;;;;;;;10.57;3.38;;;11.30;89.20;;;;;;9177322;19;20014;-71
2024/02/18 05:08:28;;;;;;;16.50;3.42;;;11.40;89.60;;;;;;9175017;19;20048;-71
2024/02/18 05:11:33;;;;;;;9.60;3.47;;;11.50;89.10;;;;;;9174021;19;20054;-71
2024/02/18 05:14:41;;;;;;;12.32;3.20;;;11.40;89.20;;;;;;9176945;19;20033;-71
2024/02/18 05:17:46;;;;;;;12.65;3.22;;;11.40;89.20;;;;;;9176007;19;20018;-70
2024/02/18 05:20:55;;;;;;;10.95;3.47;;;11.30;89.00;;;;;;9176163;19;20022;-71
2024/02/18 05:24:03;;;;;;;6.22;2.90;;;11.40;89.00;;;;;;9175352;19;20006;-71
2024/02/18 05:27:11;;;;;;;6.00;2.85;;;11.40;89.10;;;;;;9171069;19;20021;-71
2024/02/18 05:30:17;;;;;;;10.73;3.03;;;11.40;89.10;;;;;;9173096;19;20021;-70
2024/02/18 05:33:25;;;;;;;12.65;2.97;;;11.30;88.80;;;;;;9174977;19;20027;-70
2024/02/18 05:36:30;;;;;;;9.27;2.80;;;11.40;89.20;;;;;;9175540;19;20655;-71
2024/02/18 05:39:40;;;;;;;9.52;3.50;;;11.40;89.10;;;;;;9175123;19;20026;-71
2024/02/18 05:42:46;;;;;;;10.43;3.63;;;11.30;89.00;;;;;;9173473;19;20056;-71
2024/02/18 05:45:54;;;;;;;10.57;3.55;;;11.40;88.90;;;;;;9174812;19;20018;-70
2024/02/18 05:48:59;;;;;;;9.18;2.83;;;11.40;88.80;;;;;;9171586;19;20595;-70
2024/02/18 05:52:09;;;;;;;7.50;2.78;;;11.40;88.90;;;;;;9183517;19;20018;-70
2024/02/18 05:55:17;;;;;;;6.43;2.97;;;11.40;88.80;;;;;;9182593;19;20021;-71
2024/02/18 05:58:25;;;;;;;8.50;3.50;;;11.40;88.80;;;;;;9183255;19;20014;-71
2024/02/18 06:01:30;;;;;;;12.52;3.53;;;11.30;88.70;;;;;;9183458;19;20026;-71
2024/02/18 06:04:39;;;;;;;9.65;3.38;;;11.40;88.80;;;;;;9184201;19;20014;-71
2024/02/18 06:07:44;;;;;;;10.70;3.47;;;11.40;88.90;;;;;;9180599;19;20467;-71
2024/02/18 06:10:54;;;;;;;12.05;4.07;;;11.40;88.80;;;;;;9182474;19;20025;-72
2024/02/18 06:14:00;;;;;;;6.03;3.03;;;11.40;88.70;;;;;;9182663;19;20021;-71
2024/02/18 06:17:08;;;;;;;13.43;3.55;;;11.40;88.80;;;;;;9182415;19;20014;-72
2024/02/18 06:20:16;;;;;;;15.00;3.42;;;11.30;88.80;;;;;;9182724;19;20010;-72
2024/02/18 06:23:23;;;;;;;12.93;3.47;;;11.30;88.70;;;;;;9182673;19;20010;-72
2024/02/18 06:26:31;;;;;;;14.95;4.00;;;11.30;88.80;;;;;;9177409;19;20014;-72
2024/02/18 06:29:39;;;;;;;11.45;3.70;;;11.30;89.10;;;;;;9176875;19;20021;-72
2024/02/18 06:32:45;;;;;;;18.50;4.53;;;11.30;88.60;;;;;;9181821;19;20022;-72
2024/02/18 06:35:53;;;;;;;9.75;3.13;;;11.20;88.60;;;;;;9181593;19;20010;-71
2024/02/18 06:38:58;;;;;;;13.27;4.03;;;11.20;88.50;;;;;;9181639;19;20011;-71
2024/02/18 06:42:09;;;;;;;15.48;3.20;;;11.20;88.70;;;;;;9181465;19;20037;-71
2024/02/18 06:45:14;;;;;;;10.57;4.00;;;11.20;88.70;;;;;;9181539;19;20018;-71
2024/02/18 06:48:22;;;;;;;12.18;4.30;;;11.10;88.80;;;;;;9178990;19;20014;-72
2024/02/18 06:51:28;;;;;;;11.68;3.75;;;11.20;88.50;;;;;;9181687;19;20011;-72
2024/02/18 06:54:35;;;;;;;10.88;3.33;;;11.10;88.60;;;;;;9181031;19;20018;-71
2024/02/18 06:57:45;;;;;;;17.38;3.92;;;11.10;88.70;;;;;;9178919;19;20021;-72
2024/02/18 07:00:53;;;;;;;7.05;4.18;;;11.10;88.80;;;;;;9179018;19;20011;-72
2024/02/18 07:03:58;;;;;;;13.63;4.15;;;11.10;88.90;;;;;;9177898;19;20014;-71
2024/02/18 07:07:06;;;;;;;17.65;4.95;;;11.10;88.60;;;;;;9179560;19;20092;-71
2024/02/18 07:10:12;;;;;;;12.65;4.35;;;11.00;88.40;;;;;;9175785;19;20070;-71
2024/02/18 07:13:22;;;;;;;9.30;3.40;;;11.10;88.80;;;;;;9179375;19;20019;-72
2024/02/18 07:16:27;;;;;;;9.25;3.97;;;11.10;88.70;;;;;;9175040;19;20484;-71
2024/02/18 07:19:35;;;;;;;5.53;3.30;;;11.00;88.50;;;;;;9180215;19;20026;-73
2024/02/18 07:22:41;;;;;;;12.93;4.68;;;10.90;88.50;;;;;;9176171;19;20073;-72
2024/02/18 07:25:48;;;;;;;13.95;4.25;;;10.90;88.40;;;;;;9173096;19;20793;-71
2024/02/18 07:28:57;;;;;;;10.85;3.40;;;10.90;88.60;;;;;;9178214;19;20639;-72
2024/02/18 07:32:08;;;;;;;11.40;3.45;;;10.90;88.80;;;;;;9178454;19;20035;-73
2024/02/18 07:35:13;;;;;;;12.07;4.03;;;10.80;88.60;;;;;;9177484;19;20343;-72
2024/02/18 07:38:21;;;;;;;11.07;3.58;;;10.90;89.00;;;;;;9177017;19;20035;-71
2024/02/18 07:41:26;;;;;;;11.23;3.70;;;10.80;88.70;;;;;;9178917;19;20025;-70
2024/02/18 07:44:36;;;;;;;11.73;3.58;;;10.80;88.70;;;;;;9176265;19;20018;-70
2024/02/18 07:47:42;;;;;;;9.65;2.97;;;10.90;88.80;;;;;;9167510;19;20056;-71
2024/02/18 07:50:49;;;;;;;15.90;2.88;;;10.80;88.90;;;;;;9174947;19;20017;-71
2024/02/18 07:53:58;;;;;;;11.57;3.47;;;10.80;89.00;;;;;;9175549;19;20396;-71
2024/02/18 07:57:06;;;;;;;8.35;3.00;;;10.80;88.70;;;;;;9172808;19;20030;-70
2024/02/18 08:00:16;;;;;;;7.22;3.88;;;10.80;88.70;;;;;;9177433;19;20019;-72
2024/02/18 08:03:23;;;;;;;10.25;3.20;;;10.80;88.60;;;;;;9178019;19;20018;-71
2024/02/18 08:06:29;;;;;;;9.15;3.03;;;10.80;88.70;;;;;;9178143;19;20021;-71
2024/02/18 08:09:37;;;;;;;7.47;2.85;;;10.80;89.00;;;;;;9176706;19;20618;-71
2024/02/18 08:12:42;;;;;;;12.77;4.18;;;10.80;88.80;;;;;;9175555;19;20029;-71
2024/02/18 08:15:53;;;;;;;7.43;3.33;;;10.80;89.10;;;;;;9174670;19;20126;-71
2024/02/18 08:18:58;;;;;;;11.25;2.63;;;10.80;88.90;;;;;;9170069;19;20023;-71
2024/02/18 08:22:06;;;;;;;12.18;2.85;;;10.70;88.80;;;;;;9169895;19;20010;-67
2024/02/18 08:25:12;;;;;;;12.30;3.05;;;10.70;88.90;;;;;;9171481;19;20089;-67
2024/02/18 08:28:20;;;;;;;8.43;2.83;;;10.70;88.80;;;;;;9175333;19;20022;-67
2024/02/18 08:31:28;;;;;;;13.93;3.10;;;10.70;88.90;;;;;;9172803;19;20010;-67
2024/02/18 08:34:35;;;;;;;14.30;3.03;;;10.70;89.00;;;;;;9177794;19;20013;-67
2024/02/18 08:37:41;;;;;;;6.38;2.75;;;10.70;89.40;;;;;;9175652;19;20491;-68
2024/02/18 08:40:49;;;;;;;6.38;2.70;;;10.70;89.00;;;;;;9173283;19;20468;-68
2024/02/18 08:43:54;;;;;;;12.07;3.00;;;10.70;89.20;;;;;;9175320;19;20392;-68
2024/02/18 08:47:05;;;;;;;12.52;3.20;;;10.70;89.30;;;;;;9173991;19;20029;-68
2024/02/18 08:50:11;;;;;;;9.98;2.85;;;10.60;89.10;;;;;;9172918;19;20022;-68
2024/02/18 08:53:19;;;;;;;8.95;2.70;;;10.60;88.80;;;;;;9173738;19;21354;-68
2024/02/18 08:56:24;;;;;;;9.52;2.55;;;10.70;89.00;;;;;;9168356;19;20082;-68
2024/02/18 08:59:32;;;;;;;11.65;3.00;;;10.70;89.20;;;;;;9173041;19;20010;-68
2024/02/18 09:02:40;;;;;;;4.22;2.65;;;10.70;89.10;;;;;;9177199;19;20059;-68
2024/02/18 09:05:48;;;;;;;7.93;2.90;;;10.70;88.90;;;;;;9176820;19;20018;-68
2024/02/18 09:08:53;;;;;;;8.10;2.65;;;10.70;89.10;;;;;;9172836;19;20481;-70
2024/02/18 09:12:01;;;;;;;9.93;3.30;;;10.70;89.10;;;;;;9174659;19;20059;-68
2024/02/18 09:15:09;;;;;;;10.68;2.92;;;10.60;88.90;;;;;;9174214;19;20058;-68
2024/02/18 09:18:19;;;;;;;12.68;2.88;;;10.60;89.00;;;;;;9176537;19;20391;-68
2024/02/18 09:21:24;;;;;;;12.35;3.20;;;10.60;89.00;;;;;;9176267;19;20007;-68
2024/02/18 09:24:32;;;;;;;11.43;3.05;;;10.70;89.00;;;;;;9173675;19;20112;-68
2024/02/18 09:27:37;;;;;;;12.48;3.10;;;10.60;88.90;;;;;;9170379;19;20018;-69
2024/02/18 09:30:45;;;;;;;11.45;3.45;;;10.70;89.00;;;;;;9175815;19;20018;-70
2024/02/18 09:33:53;;;;;;;12.15;3.00;;;10.70;89.80;;;;;;9177993;19;20014;-68
2024/02/18 09:37:01;;;;;;;9.55;3.20;;;10.70;89.10;;;;;;9177375;19;20107;-68
2024/02/18 09:40:08;;;;;;;10.95;3.05;;;10.60;88.90;;;;;;9176677;19;20014;-68
2024/02/18 09:43:18;;;;;;;7.43;2.72;;;10.60;89.00;;;;;;9175595;19;20033;-68
2024/02/18 09:46:24;;;;;;;13.20;3.30;;;10.70;89.30;;;;;;9174642;19;20018;-68
2024/02/18 09:49:36;;;;;;;14.00;3.63;;;10.70;89.50;;;;;;9173429;19;20022;-68
2024/02/18 09:52:44;;;;;;;3.85;2.38;;;10.60;89.10;;;;;;9172481;19;20017;-68
2024/02/18 09:55:51;;;;;;;8.50;2.70;;;10.70;89.40;;;;;;9174938;19;20026;-68
2024/02/18 09:58:57;;;;;;;14.45;3.33;;;10.70;89.10;;;;;;9175084;19;20044;-68
2024/02/18 10:02:06;;;;;;;12.10;2.90;;;10.60;89.10;;;;;;9174718;19;20380;-69
2024/02/18 10:05:14;;;;;;;11.48;2.45;;;10.70;90.00;;;;;;9175866;19;20011;-69
2024/02/18 10:08:22;;;;;;;10.80;2.95;;;10.70;89.10;;;;;;9173354;19;20026;-69
2024/02/18 10:11:30;;;;;;;7.15;2.20;;;10.70;89.00;;;;;;9173686;19;20014;-69
2024/02/18 10:14:38;;;;;;;10.30;2.63;;;10.60;88.80;;;;;;9173849;19;20028;-69
2024/02/18 10:17:43;;;;;;;15.82;2.63;;;10.60;89.60;;;;;;9171308;19;20018;-69
2024/02/18 10:20:54;;;;;;;5.75;2.60;;;10.60;88.90;;;;;;9171437;19;20011;-68
2024/02/18 10:24:02;;;;;;;9.98;2.50;;;10.70;89.30;;;;;;9173226;19;20015;-68
2024/02/18 10:27:09;;;;;;;10.20;2.70;;;10.60;88.80;;;;;;9166951;19;20025;-69
2024/02/18 10:30:16;;;;;;;10.18;3.10;;;10.60;88.90;;;;;;9173987;19;20374;-68
2024/02/18 10:33:23;;;;;;;7.82;2.70;;;10.60;89.00;;;;;;9173234;19;20455;-68
2024/02/18 10:36:34;;;;;;;6.68;2.80;;;10.60;89.10;;;;;;9174724;19;20011;-68
2024/02/18 10:39:44;;;;;;;6.47;2.35;;;10.60;89.00;;;;;;9182408;19;20018;-68
2024/02/18 10:42:54;;;;;;;8.05;2.15;;;10.60;89.10;;;;;;9182065;19;20010;-68
2024/02/18 10:46:05;;;;;;;8.13;2.58;;;10.60;89.20;;;;;;9181485;19;20014;-67
2024/02/18 10:49:30;;;;;;;6.22;2.15;;;10.60;89.20;;;;;;9179196;19;20456;-69
2024/02/18 10:52:47;;;;;;;11.13;2.47;;;10.60;89.20;;;;;;9177373;19;20015;-67
2024/02/18 10:56:03;;;;;;;10.38;2.80;;;10.50;89.00;;;;;;9182055;19;20334;-68
2024/02/18 10:59:18;;;;;;;6.45;2.17;;;10.90;89.80;;;;;;9179327;19;20015;-69
2024/02/18 11:02:30;;;;;;;8.03;3.10;;;10.60;89.40;;;;;;9180154;19;20029;-67
2024/02/18 11:05:38;;;;;;;;;;;10.50;89.30;;;;;;9182449;19;20033;-68
2024/02/18 11:08:47;;;;;;;7.43;2.55;;;10.50;89.00;;;;;;9176590;19;20492;-68
2024/02/18 11:11:56;;;;;;;6.85;1.83;;;10.50;89.30;;;;;;9179257;19;20018;-68
2024/02/18 11:15:03;;;;;;;4.93;2.50;;;10.50;89.50;;;;;;9178625;19;20019;-68
2024/02/18 11:18:11;;;;;;;8.75;2.05;;;10.50;89.50;;;;;;9178326;19;20346;-68
2024/02/18 11:21:18;;;;;;;5.78;2.03;;;10.50;89.60;;;;;;9176747;19;20022;-69
2024/02/18 11:24:28;;;;;;;5.20;2.05;;;10.40;89.20;;;;;;9175782;19;20011;-68
2024/02/18 11:27:35;;;;;;;5.47;2.13;;;10.50;89.30;;;;;;9175089;19;20019;-70
2024/02/18 11:30:43;;;;;;;13.57;2.47;;;10.40;89.30;;;;;;9180935;19;20018;-69
2024/02/18 11:33:48;;;;;;;8.18;2.50;;;10.40;89.20;;;;;;9174406;19;20234;-68
2024/02/18 11:36:56;;;;;;;5.47;2.35;;;10.40;89.50;;;;;;9176354;19;20011;-68
2024/02/18 11:40:10;;;;;;;11.82;2.45;;;10.40;89.30;;;;;;9179480;19;20018;-68
2024/02/18 11:43:20;;;;;;;9.80;3.13;;;10.40;89.50;;;;;;9179123;19;20003;-68
2024/02/18 11:46:27;;;;;;;6.25;1.75;;;10.40;89.40;;;;;;9176647;19;20019;-68
2024/02/18 11:49:34;;;;;;;7.38;2.17;;;10.40;89.40;;;;;;9176956;19;20026;-68
2024/02/18 11:52:42;;;;;;;10.63;2.20;;;10.30;89.50;;;;;;9174390;19;20010;-68
2024/02/18 11:55:52;;;;;;;6.57;2.55;;;10.40;89.70;;;;;;9175505;19;20353;-68
2024/02/18 11:58:57;;;;;;;8.65;2.47;;;10.30;89.40;;;;;;9177658;19;20056;-68
2024/02/18 12:02:05;;;;;;;6.90;2.25;;;10.40;90.10;;;;;;9178960;19;20015;-68
2024/02/18 12:05:11;;;;;;;11.63;3.00;;;10.40;89.60;;;;;;9176515;19;20114;-68
2024/02/18 12:08:19;;;;;;;7.90;2.70;;;10.30;89.40;;;;;;9174612;19;20016;-68
2024/02/18 12:11:27;;;;;;;7.63;2.42;;;10.40;89.60;;;;;;9177881;19;20551;-68
2024/02/18 12:14:35;;;;;;;12.23;2.65;;;10.30;89.60;;;;;;9175125;19;20501;-69
2024/02/18 12:17:41;;;;;;;5.57;2.08;;;10.40;89.50;;;;;;9176978;19;20812;-68
2024/02/18 12:20:51;;;;;;;10.45;2.97;;;10.40;90.20;;;;;;9175304;19;20026;-68
2024/02/18 12:23:56;;;;;;;5.25;2.65;;;10.30;89.40;;;;;;9176251;19;20023;-69
2024/02/18 12:27:07;;;;;;;4.18;2.15;;;10.40;89.80;;;;;;9171552;19;20010;-67
2024/02/18 12:30:14;;;;;;;10.85;2.50;;;10.30;89.70;;;;;;9176805;19;20026;-68
2024/02/18 12:33:21;;;;;;;8.70;2.50;;;10.30;89.60;;;;;;9176012;19;20642;-68
2024/02/18 12:36:27;;;;;;;10.77;2.83;;;10.40;89.70;;;;;;9175083;19;20102;-68
2024/02/18 12:39:35;;;;;;;13.45;2.70;;;10.40;89.70;;;;;;9174276;19;20037;-68
2024/02/18 12:42:43;;;;;;;8.57;2.20;;;10.30;90.10;;;;;;9176346;19;20029;-68
2024/02/18 12:46:12;;;;;;;6.90;2.40;;;10.30;89.40;;;;;;9170695;19;20115;-67
2024/02/18 12:49:19;;;;;;;9.25;2.65;;;10.30;89.60;;;;;;9174539;19;20369;-68
2024/02/18 12:52:27;;;;;;;9.82;2.63;;;10.30;89.60;;;;;;9173526;19;20014;-68
2024/02/18 12:55:35;;;;;;;10.73;2.90;;;10.30;89.60;;;;;;9174258;19;20546;-68
2024/02/18 12:58:45;;;;;;;6.60;2.58;;;10.30;90.00;;;;;;9171548;19;20015;-67
2024/02/18 13:01:51;;;;;;;10.75;2.90;;;10.30;89.90;;;;;;9174425;19;20014;-67
2024/02/18 13:04:59;;;;;;;11.80;3.03;;;10.30;89.80;;;;;;9175004;19;20014;-68
2024/02/18 13:08:06;;;;;;;6.40;2.90;;;10.20;90.00;;;;;;9172727;19;20052;-68
2024/02/18 13:11:15;;;;;;;4.63;2.92;;;10.10;89.40;;;;;;9175515;19;20026;-68
2024/02/18 13:14:25;;;;;;;11.52;3.55;;;10.30;90.10;;;;;;9173540;19;20310;-67
2024/02/18 13:17:32;;;;;;;9.25;3.08;;;10.10;89.60;;;;;;9176164;19;20086;-67
2024/02/18 13:20:38;;;;;;;6.03;2.65;;;10.10;89.60;;;;;;9171008;19;20538;-67
2024/02/18 13:23:46;;;;;;;9.00;3.10;;;10.10;89.60;;;;;;9173731;19;20015;-67
2024/02/18 13:26:56;;;;;;;11.43;3.05;;;10.00;89.60;;;;;;9166839;19;20367;-67
2024/02/18 13:30:07;;;;;;;11.05;3.22;;;10.10;89.70;;;;;;9171495;19;20357;-67
2024/02/18 13:33:13;;;;;;;8.40;3.90;;;10.00;89.60;;;;;;9173324;19;20019;-67
2024/02/18 13:36:21;;;;;;;5.75;2.97;;;10.00;90.20;;;;;;9173730;19;20066;-67
2024/02/18 13:39:26;;;;;;;11.20;3.78;;;10.00;89.60;;;;;;9172649;19;20029;-67
2024/02/18 13:42:34;;;;;;;8.27;3.85;;;9.90;89.40;;;;;;9173664;19;20018;-67
2024/02/18 13:45:42;;;;;;;8.93;4.32;;;10.00;89.50;;;;;;9172642;19;20076;-68
2024/02/18 13:48:50;;;;;;;8.75;3.10;;;10.00;89.80;;;;;;9173065;19;20022;-68
2024/02/18 13:51:56;;;;;;;12.50;3.97;;;10.00;89.70;;;;;;9172412;19;20025;-68
2024/02/18 13:55:03;;;;;;;7.60;3.20;;;9.90;89.70;;;;;;9171528;19;20017;-68
2024/02/18 13:58:09;;;;;;;7.60;3.28;;;9.90;90.00;;;;;;9171759;19;20019;-68
2024/02/18 14:01:20;;;;;;;10.93;3.22;;;9.90;89.60;;;;;;9171067;19;20412;-68
2024/02/18 14:04:25;;;;;;;12.40;3.90;;;9.90;89.70;;;;;;9172621;19;20021;-67
2024/02/18 14:07:33;;;;;;;10.13;3.78;;;9.90;89.90;;;;;;9172285;19;20014;-69
2024/02/18 14:10:38;;;;;;;11.38;3.17;;;9.90;89.60;;;;;;9171471;19;20460;-67
2024/02/18 14:13:46;;;;;;;7.32;3.20;;;9.90;89.70;;;;;;9177916;19;20030;-67
2024/02/18 14:16:54;;;;;;;10.38;3.25;;;9.90;89.70;;;;;;9183569;19;20052;-68
2024/02/18 14:20:02;;;;;;;12.48;3.20;;;9.90;89.70;;;;;;9181066;19;20017;-68
2024/02/18 14:23:08;;;;;;;6.80;3.35;;;9.90;89.80;;;;;;9181967;19;20723;-67
2024/02/18 14:26:16;;;;;;;13.63;3.70;;;9.90;89.90;;;;;;9177553;19;20015;-67
2024/02/18 14:29:21;;;;;;;5.80;2.88;;;9.80;89.90;;;;;;9182993;19;20014;-67
2024/02/18 14:32:31;;;;;;;6.47;2.85;;;9.80;89.90;;;;;;9181829;19;20011;-68
2024/02/18 14:35:37;;;;;;;4.38;2.47;;;9.80;90.00;;;;;;9179949;19;20026;-67
2024/02/18 14:38:45;;;;;;;7.35;2.75;;;9.80;89.70;;;;;;9176649;19;20377;-68
2024/02/18 14:41:50;;;;;;;5.95;2.90;;;9.80;89.80;;;;;;9179256;19;20022;-67
2024/02/18 14:45:00;;;;;;;5.82;2.60;;;9.80;89.80;;;;;;9181522;19;20011;-67
2024/02/18 14:48:09;;;;;;;6.43;2.67;;;9.90;90.00;;;;;;9179771;19;20026;-67
2024/02/18 14:51:17;;;;;;;8.00;3.08;;;9.80;90.00;;;;;;9178017;19;20011;-68
2024/02/18 14:54:22;;;;;;;2.90;2.40;;;9.80;90.00;;;;;;9177348;19;20393;-68
2024/02/18 14:57:30;;;;;;;4.47;2.38;;;9.80;90.00;;;;;;9177483;19;20041;-67
2024/02/18 15:00:35;;;;;;;3.20;2.45;;;9.80;90.00;;;;;;9177331;19;20018;-69
2024/02/18 15:03:46;;;;;;;5.57;2.40;;;9.80;90.00;;;;;;9178479;19;20021;-67
2024/02/18 15:06:51;;;;;;;3.22;2.08;;;9.90;90.00;;;;;;9173763;19;20380;-67
2024/02/18 15:09:59;;;;;;;5.88;2.30;;;9.80;90.00;;;;;;9169615;19;20011;-67
2024/02/18 15:13:06;;;;;;;3.40;2.20;;;9.80;90.00;;;;;;9173829;19;20042;-67
2024/02/18 15:16:14;;;;;;;3.25;2.10;;;9.80;90.00;;;;;;9176774;19;20819;-67
2024/02/18 15:19:22;;;;;;;4.57;2.38;;;9.80;90.00;;;;;;9177979;19;20018;-67
2024/02/18 15:22:30;;;;;;;5.50;2.17;;;9.80;90.10;;;;;;9174718;19;20365;-69
2024/02/18 15:25:37;;;;;;;5.05;2.08;;;9.90;90.10;;;;;;9174873;19;20026;-67
2024/02/18 15:28:45;;;;;;;8.40;2.05;;;9.90;90.20;;;;;;9176654;19;20010;-67
2024/02/18 15:31:51;;;;;;;4.32;2.22;;;9.90;90.10;;;;;;9174179;19;20030;-67
2024/02/18 15:35:01;;;;;;;4.65;1.85;;;9.90;90.10;;;;;;9174482;19;20356;-67
2024/02/18 15:38:07;;;;;;;5.97;2.55;;;9.90;90.10;;;;;;9178185;19;20016;-67
2024/02/18 15:41:14;;;;;;;3.90;2.47;;;9.90;90.20;;;;;;9180136;19;20006;-67
2024/02/18 15:44:20;;;;;;;3.85;1.80;;;9.90;90.20;;;;;;9179076;19;20025;-67
2024/02/18 15:47:27;;;;;;;3.28;1.88;;;9.90;90.30;;;;;;9179029;19;20528;-67
2024/02/18 15:50:35;;;;;;;2.03;1.77;;;9.90;90.30;;;;;;9179812;19;20521;-68
2024/02/18 15:53:43;;;;;;;2.60;1.85;;;10.00;90.30;;;;;;9178380;19;20025;-67
2024/02/18 15:56:48;;;;;;;4.35;1.85;;;9.90;90.20;;;;;;9178339;19;20812;-69
2024/02/18 15:59:56;;;;;;;4.35;2.10;;;9.90;90.20;;;;;;9178702;19;20019;-67
2024/02/18 16:03:02;;;;;;;2.67;1.75;;;10.00;90.30;;;;;;9176749;19;20014;-67
2024/02/18 16:06:12;;;;;;;3.80;1.73;;;10.00;90.30;;;;;;9178815;19;20037;-69
2024/02/18 16:09:18;;;;;;;4.13;2.05;;;10.00;90.30;;;;;;9177033;19;20035;-67